createdAt,value
2019-05-18T00:02:14.044Z,12.00
2019-05-18T00:04:43.655Z,12.00
2019-05-18T00:07:13.229Z,11.90
2019-05-18T00:09:42.736Z,11.90
2019-05-18T00:12:12.309Z,11.80
2019-05-18T00:14:42.957Z,11.80
2019-05-18T00:17:24.544Z,11.70
2019-05-18T00:19:43.768Z,11.70
2019-05-18T00:22:13.377Z,11.70
2019-05-18T00:24:42.840Z,11.60
2019-05-18T00:27:12.396Z,11.60
2019-05-18T00:29:41.850Z,11.60
2019-05-18T00:32:11.456Z,11.50
2019-05-18T00:34:41.067Z,11.50
2019-05-18T00:37:10.590Z,11.50
2019-05-18T00:39:40.099Z,11.50
2019-05-18T00:42:09.757Z,11.40
2019-05-18T00:44:39.232Z,11.40
2019-05-18T00:47:08.868Z,11.40
2019-05-18T00:49:38.636Z,11.40
2019-05-18T00:52:08.081Z,11.30
2019-05-18T00:54:37.855Z,11.30
2019-05-18T00:57:07.318Z,11.30
2019-05-18T00:59:36.947Z,11.30
2019-05-18T01:02:06.520Z,11.30
2019-05-18T01:04:36.049Z,11.20
2019-05-18T01:07:05.827Z,11.20
2019-05-18T01:09:35.485Z,11.20
2019-05-18T01:12:04.985Z,11.20
2019-05-18T01:14:34.796Z,11.20
2019-05-18T01:17:04.251Z,11.20
2019-05-18T01:19:34.017Z,11.20
2019-05-18T01:22:03.659Z,11.10
2019-05-18T01:24:33.147Z,11.10
2019-05-18T01:27:02.873Z,11.10
2019-05-18T01:29:32.413Z,11.10
2019-05-18T01:32:02.059Z,11.10
2019-05-18T01:34:31.657Z,11.00
2019-05-18T01:37:01.084Z,11.00
2019-05-18T01:39:30.725Z,11.00
2019-05-18T01:42:00.205Z,11.00
2019-05-18T01:44:29.980Z,11.10
2019-05-18T01:46:59.500Z,11.10
2019-05-18T01:49:29.182Z,11.00
2019-05-18T01:51:58.795Z,11.00
2019-05-18T01:54:28.259Z,11.00
2019-05-18T01:56:57.881Z,11.00
2019-05-18T01:59:27.357Z,11.00
2019-05-18T02:01:57.006Z,11.00
2019-05-18T02:04:26.572Z,10.90
2019-05-18T02:06:56.202Z,10.90
2019-05-18T02:09:25.736Z,10.80
2019-05-18T02:11:55.321Z,10.90
2019-05-18T02:14:24.905Z,10.90
2019-05-18T02:16:54.420Z,10.90
2019-05-18T02:19:24.906Z,10.90
2019-05-18T02:21:54.482Z,10.90
2019-05-18T02:24:24.063Z,11.00
2019-05-18T02:26:53.755Z,11.00
2019-05-18T02:29:23.107Z,11.00
2019-05-18T02:31:52.649Z,11.00
2019-05-18T02:34:22.175Z,11.00
2019-05-18T02:36:51.780Z,11.00
2019-05-18T02:39:21.304Z,11.00
2019-05-18T02:41:50.898Z,11.00
2019-05-18T02:44:20.328Z,11.00
2019-05-18T02:46:50.209Z,11.00
2019-05-18T02:49:19.791Z,10.90
2019-05-18T02:51:49.451Z,10.90
2019-05-18T02:54:19.027Z,11.00
2019-05-18T02:56:48.409Z,10.90
2019-05-18T02:59:17.742Z,10.90
2019-05-18T03:01:47.265Z,10.90
2019-05-18T03:04:16.821Z,10.80
2019-05-18T03:06:46.316Z,10.80
2019-05-18T03:09:15.821Z,10.70
2019-05-18T03:11:45.432Z,10.70
2019-05-18T03:14:14.800Z,10.70
2019-05-18T03:16:43.997Z,10.70
2019-05-18T03:19:13.262Z,10.70
2019-05-18T03:21:42.641Z,10.70
2019-05-18T03:24:11.955Z,10.70
2019-05-18T03:26:41.279Z,10.70
2019-05-18T03:29:10.585Z,10.80
2019-05-18T03:31:39.771Z,10.80
2019-05-18T03:34:09.043Z,10.80
2019-05-18T03:36:38.367Z,10.80
2019-05-18T03:39:07.706Z,10.80
2019-05-18T03:41:37.034Z,10.80
2019-05-18T03:44:06.327Z,10.70
2019-05-18T03:46:35.687Z,10.80
2019-05-18T03:49:04.912Z,10.70
2019-05-18T03:51:34.255Z,10.70
2019-05-18T03:54:03.499Z,10.70
2019-05-18T03:56:32.805Z,10.70
2019-05-18T03:59:02.166Z,10.70
2019-05-18T04:01:31.462Z,10.70
2019-05-18T04:04:00.742Z,10.70
2019-05-18T04:06:29.956Z,10.80
2019-05-18T04:08:59.231Z,10.80
2019-05-18T04:11:28.541Z,10.80
2019-05-18T04:13:57.981Z,10.70
2019-05-18T04:16:27.168Z,10.80
2019-05-18T04:18:56.450Z,10.80
2019-05-18T04:21:25.789Z,10.90
2019-05-18T04:23:55.174Z,10.80
2019-05-18T04:26:24.520Z,10.80
2019-05-18T04:28:54.045Z,10.80
2019-05-18T04:31:23.307Z,10.80
2019-05-18T04:33:52.622Z,10.80
2019-05-18T04:36:21.889Z,10.90
2019-05-18T04:38:51.258Z,10.90
2019-05-18T04:41:20.556Z,10.90
2019-05-18T04:43:49.816Z,11.00
2019-05-18T04:46:19.063Z,11.00
2019-05-18T04:48:48.486Z,11.10
2019-05-18T04:51:17.783Z,11.10
2019-05-18T04:53:47.036Z,11.10
2019-05-18T04:56:16.338Z,11.10
2019-05-18T04:58:45.666Z,11.20
2019-05-18T05:01:14.885Z,11.20
2019-05-18T05:03:44.187Z,11.30
2019-05-18T05:06:13.403Z,11.30
2019-05-18T05:08:42.929Z,11.30
2019-05-18T05:11:12.162Z,11.30
2019-05-18T05:13:41.424Z,11.40
2019-05-18T05:16:10.749Z,11.50
2019-05-18T05:18:40.020Z,11.60
2019-05-18T05:21:09.268Z,11.70
2019-05-18T05:23:38.539Z,11.80
2019-05-18T05:26:07.775Z,11.90
2019-05-18T05:28:36.973Z,12.00
2019-05-18T05:31:06.280Z,12.20
2019-05-18T05:33:35.623Z,12.40
2019-05-18T05:36:05.246Z,12.50
2019-05-18T05:38:34.530Z,12.60
2019-05-18T05:41:03.904Z,12.50
2019-05-18T05:43:33.228Z,12.60
2019-05-18T05:46:02.495Z,12.50
2019-05-18T05:48:31.827Z,12.60
2019-05-18T05:51:01.086Z,12.70
2019-05-18T05:53:30.347Z,12.90
2019-05-18T05:55:59.555Z,12.80
2019-05-18T05:58:29.108Z,12.90
2019-05-18T06:00:58.372Z,12.90
2019-05-18T06:03:27.610Z,12.90
2019-05-18T06:05:56.891Z,13.00
2019-05-18T06:08:26.206Z,13.20
2019-05-18T06:10:58.254Z,13.30
2019-05-18T06:13:27.625Z,13.50
2019-05-18T06:15:56.880Z,13.50
2019-05-18T06:18:26.106Z,13.50
2019-05-18T06:20:55.487Z,13.60
2019-05-18T06:23:24.655Z,13.60
2019-05-18T06:25:53.919Z,13.70
2019-05-18T06:28:23.159Z,13.70
2019-05-18T06:30:52.452Z,13.80
2019-05-18T06:33:21.684Z,13.90
2019-05-18T06:35:51.062Z,13.90
2019-05-18T06:38:20.337Z,13.80
2019-05-18T06:40:49.790Z,13.80
2019-05-18T06:43:19.012Z,13.90
2019-05-18T06:45:48.363Z,14.00
2019-05-18T06:48:17.555Z,13.90
2019-05-18T06:50:46.883Z,14.00
2019-05-18T06:53:16.128Z,14.00
2019-05-18T06:55:45.479Z,14.10
2019-05-18T06:58:16.011Z,14.20
2019-05-18T07:00:45.341Z,14.30
2019-05-18T07:03:14.571Z,14.50
2019-05-18T07:05:43.883Z,14.60
2019-05-18T07:08:13.144Z,14.60
2019-05-18T07:10:42.499Z,14.60
2019-05-18T07:13:11.808Z,14.80
2019-05-18T07:15:41.147Z,14.90
2019-05-18T07:18:10.489Z,15.10
2019-05-18T07:20:39.854Z,15.10
2019-05-18T07:23:09.172Z,15.20
2019-05-18T07:25:38.514Z,15.30
2019-05-18T07:28:07.796Z,15.40
2019-05-18T07:30:37.150Z,15.60
2019-05-18T07:33:06.378Z,15.80
2019-05-18T07:35:35.651Z,15.90
2019-05-18T07:38:05.099Z,15.90
2019-05-18T07:40:34.455Z,15.90
2019-05-18T07:43:03.787Z,15.90
2019-05-18T07:45:33.117Z,15.90
2019-05-18T07:48:02.467Z,16.10
2019-05-18T07:50:31.824Z,16.30
2019-05-18T07:53:01.130Z,16.30
2019-05-18T07:55:30.379Z,16.20
2019-05-18T07:57:59.740Z,16.30
2019-05-18T08:00:29.063Z,16.40
2019-05-18T08:02:58.461Z,16.60
2019-05-18T08:05:27.778Z,16.70
2019-05-18T08:07:56.983Z,16.80
2019-05-18T08:10:37.453Z,16.80
2019-05-18T08:13:07.461Z,16.90
2019-05-18T08:15:37.318Z,17.00
2019-05-18T08:18:06.690Z,17.30
2019-05-18T08:20:36.111Z,17.50
2019-05-18T08:23:07.169Z,17.80
2019-05-18T08:25:36.487Z,17.90
2019-05-18T08:28:06.015Z,18.20
2019-05-18T08:30:35.276Z,18.20
2019-05-18T08:33:04.720Z,18.00
2019-05-18T08:35:35.798Z,17.60
2019-05-18T08:38:05.011Z,17.40
2019-05-18T08:40:34.331Z,17.20
2019-05-18T08:43:03.623Z,17.10
2019-05-18T08:45:32.911Z,17.00
2019-05-18T08:48:02.204Z,17.00
2019-05-18T08:50:31.540Z,16.90
2019-05-18T08:53:00.754Z,17.00
2019-05-18T08:55:30.485Z,17.10
2019-05-18T08:57:59.832Z,17.40
2019-05-18T09:00:31.333Z,17.80
2019-05-18T09:03:00.681Z,18.20
2019-05-18T09:05:29.894Z,18.50
2019-05-18T09:07:59.252Z,18.90
2019-05-18T09:10:28.850Z,19.00
2019-05-18T09:13:00.519Z,19.30
2019-05-18T09:15:29.984Z,19.30
2019-05-18T09:17:59.453Z,19.00
2019-05-18T09:20:37.139Z,18.70
2019-05-18T09:23:08.018Z,18.60
2019-05-18T09:25:37.762Z,18.60
2019-05-18T09:28:07.409Z,18.40
2019-05-18T09:30:36.810Z,18.40
2019-05-18T09:33:07.009Z,18.40
2019-05-18T09:35:36.920Z,18.40
2019-05-18T09:38:06.384Z,18.30
2019-05-18T09:40:35.709Z,18.30
2019-05-18T09:43:04.985Z,18.70
2019-05-18T09:45:34.347Z,19.00
2019-05-18T09:48:06.747Z,19.30
2019-05-18T09:50:36.121Z,19.70
2019-05-18T09:53:05.833Z,19.80
2019-05-18T09:55:35.505Z,19.50
2019-05-18T09:58:05.199Z,19.60
2019-05-18T10:00:38.713Z,19.70
2019-05-18T10:03:06.025Z,20.20
2019-05-18T10:05:35.471Z,20.30
2019-05-18T10:08:05.145Z,20.70
2019-05-18T10:10:34.571Z,21.10
2019-05-18T10:13:03.910Z,21.50
2019-05-18T10:15:33.235Z,21.90
2019-05-18T10:18:02.585Z,22.20
2019-05-18T10:20:33.194Z,22.40
2019-05-18T10:23:12.342Z,22.40
2019-05-18T10:25:35.143Z,22.30
2019-05-18T10:28:05.542Z,22.30
2019-05-18T10:30:35.223Z,22.10
2019-05-18T10:33:04.575Z,22.30
2019-05-18T10:35:33.825Z,22.50
2019-05-18T10:38:03.298Z,22.60
2019-05-18T10:40:32.658Z,23.00
2019-05-18T10:43:02.017Z,22.90
2019-05-18T10:45:31.425Z,23.00
2019-05-18T10:48:00.747Z,23.30
2019-05-18T10:50:30.292Z,23.60
2019-05-18T10:53:04.088Z,24.00
2019-05-18T10:55:34.008Z,24.00
2019-05-18T10:58:05.646Z,23.70
2019-05-18T11:00:35.715Z,23.60
2019-05-18T11:03:05.093Z,23.10
2019-05-18T11:05:35.016Z,22.50
2019-05-18T11:08:04.515Z,22.20
2019-05-18T11:10:33.854Z,22.10
2019-05-18T11:13:03.257Z,22.20
2019-05-18T11:15:32.778Z,22.20
2019-05-18T11:18:02.222Z,22.50
2019-05-18T11:20:31.609Z,22.60
2019-05-18T11:23:00.892Z,22.70
2019-05-18T11:25:30.260Z,23.20
2019-05-18T11:27:59.916Z,23.30
2019-05-18T11:30:29.454Z,23.00
2019-05-18T11:32:58.980Z,22.50
2019-05-18T11:35:30.061Z,22.50
2019-05-18T11:37:59.329Z,22.70
2019-05-18T11:40:28.995Z,22.70
2019-05-18T11:42:58.537Z,23.10
2019-05-18T11:45:27.821Z,23.30
2019-05-18T11:47:57.258Z,23.70
2019-05-18T11:50:26.651Z,24.00
2019-05-18T11:52:56.377Z,23.80
2019-05-18T11:55:26.114Z,23.00
2019-05-18T11:57:55.554Z,22.60
2019-05-18T12:00:26.160Z,22.50
2019-05-18T12:02:55.949Z,23.00
2019-05-18T12:05:26.302Z,23.10
2019-05-18T12:07:55.827Z,23.40
2019-05-18T12:10:25.448Z,23.50
2019-05-18T12:12:55.484Z,23.80
2019-05-18T12:15:25.442Z,24.00
2019-05-18T12:17:54.845Z,23.70
2019-05-18T12:20:25.916Z,23.20
2019-05-18T12:22:55.425Z,23.60
2019-05-18T12:25:25.229Z,23.60
2019-05-18T12:27:54.815Z,23.60
2019-05-18T12:30:25.737Z,23.50
2019-05-18T12:32:55.569Z,23.80
2019-05-18T12:35:25.681Z,24.00
2019-05-18T12:37:56.273Z,24.30
2019-05-18T12:40:25.803Z,24.50
2019-05-18T12:42:55.191Z,24.20
2019-05-18T12:45:24.585Z,24.40
2019-05-18T12:47:58.519Z,24.40
2019-05-18T12:50:28.543Z,24.60
2019-05-18T12:52:57.933Z,24.40
2019-05-18T12:55:27.560Z,23.90
2019-05-18T12:57:56.967Z,23.60
2019-05-18T13:00:26.528Z,23.80
2019-05-18T13:02:55.916Z,24.50
2019-05-18T13:05:25.374Z,24.80
2019-05-18T13:07:54.739Z,24.30
2019-05-18T13:10:24.439Z,24.60
2019-05-18T13:12:53.813Z,24.70
2019-05-18T13:15:24.179Z,24.90
2019-05-18T13:17:53.585Z,24.60
2019-05-18T13:20:23.537Z,24.50
2019-05-18T13:22:53.021Z,24.80
2019-05-18T13:25:22.732Z,25.00
2019-05-18T13:27:52.193Z,25.00
2019-05-18T13:30:21.970Z,24.90
2019-05-18T13:32:51.449Z,24.80
2019-05-18T13:35:23.235Z,24.90
2019-05-18T13:37:52.758Z,25.20
2019-05-18T13:40:22.692Z,25.40
2019-05-18T13:42:52.025Z,25.30
2019-05-18T13:45:23.547Z,25.20
2019-05-18T13:47:53.128Z,25.00
2019-05-18T13:50:22.842Z,24.80
2019-05-18T13:52:54.135Z,24.30
2019-05-18T13:55:24.819Z,23.90
2019-05-18T13:57:54.976Z,23.90
2019-05-18T14:00:24.856Z,24.00
2019-05-18T14:02:54.164Z,24.10
2019-05-18T14:05:23.557Z,24.30
2019-05-18T14:07:52.925Z,24.50
2019-05-18T14:10:23.961Z,24.60
2019-05-18T14:12:53.937Z,24.70
2019-05-18T14:15:24.177Z,24.60
2019-05-18T14:17:53.723Z,24.50
2019-05-18T14:20:26.356Z,24.50
2019-05-18T14:22:55.240Z,24.20
2019-05-18T14:25:26.530Z,24.10
2019-05-18T14:27:55.909Z,24.10
2019-05-18T14:30:26.421Z,23.90
2019-05-18T14:32:58.151Z,23.80
2019-05-18T14:35:28.226Z,23.90
2019-05-18T14:37:58.034Z,23.70
2019-05-18T14:40:28.299Z,23.70
2019-05-18T14:42:57.874Z,23.50
2019-05-18T14:45:27.401Z,23.10
2019-05-18T14:47:56.924Z,22.80
2019-05-18T14:50:28.051Z,22.40
2019-05-18T14:52:58.016Z,22.20
2019-05-18T14:55:33.615Z,22.10
2019-05-18T14:57:59.309Z,21.90
2019-05-18T15:00:28.845Z,21.20
2019-05-18T15:02:58.434Z,20.70
2019-05-18T15:05:38.651Z,20.40
2019-05-18T15:08:08.021Z,20.20
2019-05-18T15:10:37.580Z,20.00
2019-05-18T15:13:06.889Z,19.90
2019-05-18T15:15:36.407Z,19.70
2019-05-18T15:18:05.710Z,19.50
2019-05-18T15:20:35.159Z,19.30
2019-05-18T15:23:04.515Z,19.20
2019-05-18T15:25:48.173Z,19.20
2019-05-18T15:28:04.878Z,19.20
2019-05-18T15:30:34.282Z,19.00
2019-05-18T15:33:03.512Z,19.00
2019-05-18T15:35:32.835Z,19.00
2019-05-18T15:38:02.121Z,19.50
2019-05-18T15:40:31.451Z,19.60
2019-05-18T15:43:00.870Z,19.70
2019-05-18T15:45:30.512Z,19.90
2019-05-18T15:47:59.896Z,20.20
2019-05-18T15:50:29.259Z,20.00
2019-05-18T15:52:58.663Z,19.80
2019-05-18T15:55:28.022Z,19.80
2019-05-18T15:57:57.362Z,20.00
2019-05-18T16:00:26.709Z,20.30
2019-05-18T16:02:55.966Z,20.60
2019-05-18T16:05:25.122Z,20.70
2019-05-18T16:07:54.407Z,21.00
2019-05-18T16:10:24.245Z,21.10
2019-05-18T16:12:53.508Z,21.10
2019-05-18T16:15:22.955Z,21.10
2019-05-18T16:17:52.269Z,20.90
2019-05-18T16:20:21.727Z,20.90
2019-05-18T16:22:51.047Z,21.00
2019-05-18T16:25:20.401Z,21.00
2019-05-18T16:27:49.763Z,20.80
2019-05-18T16:30:19.115Z,20.60
2019-05-18T16:32:48.380Z,20.70
2019-05-18T16:35:17.624Z,20.60
2019-05-18T16:37:46.963Z,20.70
2019-05-18T16:40:16.580Z,20.70
2019-05-18T16:42:46.677Z,20.90
2019-05-18T16:45:18.191Z,20.80
2019-05-18T16:47:47.375Z,21.00
2019-05-18T16:50:16.839Z,20.80
2019-05-18T16:52:46.165Z,20.90
2019-05-18T16:55:15.699Z,20.90
2019-05-18T16:57:45.019Z,21.00
2019-05-18T17:00:16.432Z,21.00
2019-05-18T17:02:45.895Z,21.00
2019-05-18T17:05:15.609Z,20.90
2019-05-18T17:07:45.008Z,21.00
2019-05-18T17:10:14.908Z,21.00
2019-05-18T17:12:44.230Z,21.10
2019-05-18T17:15:14.110Z,21.10
2019-05-18T17:17:43.341Z,21.20
2019-05-18T17:20:12.904Z,21.10
2019-05-18T17:22:42.204Z,21.00
2019-05-18T17:25:11.539Z,20.80
2019-05-18T17:27:40.831Z,20.80
2019-05-18T17:30:12.736Z,20.70
2019-05-18T17:32:42.061Z,20.70
2019-05-18T17:35:11.610Z,20.80
2019-05-18T17:37:40.938Z,20.80
2019-05-18T17:40:10.525Z,20.70
2019-05-18T17:42:39.734Z,20.70
2019-05-18T17:45:09.565Z,20.60
2019-05-18T17:47:38.846Z,20.70
2019-05-18T17:50:08.451Z,20.60
2019-05-18T17:52:37.699Z,20.60
2019-05-18T17:55:07.439Z,20.50
2019-05-18T17:57:36.751Z,20.40
2019-05-18T18:00:06.444Z,20.40
2019-05-18T18:02:35.967Z,20.30
2019-05-18T18:05:05.388Z,20.10
2019-05-18T18:07:34.643Z,20.10
2019-05-18T18:10:04.056Z,20.00
2019-05-18T18:12:33.594Z,20.00
2019-05-18T18:15:03.006Z,19.90
2019-05-18T18:17:33.682Z,19.80
2019-05-18T18:20:02.991Z,19.70
2019-05-18T18:22:32.231Z,19.50
2019-05-18T18:25:02.031Z,19.50
2019-05-18T18:27:31.827Z,19.30
2019-05-18T18:30:01.165Z,19.30
2019-05-18T18:32:30.520Z,19.10
2019-05-18T18:35:05.300Z,19.10
2019-05-18T18:37:34.676Z,19.10
2019-05-18T18:40:04.632Z,18.90
2019-05-18T18:42:34.266Z,18.80
2019-05-18T18:45:03.573Z,18.70
2019-05-18T18:47:33.097Z,18.60
2019-05-18T18:50:02.770Z,18.50
2019-05-18T18:52:32.171Z,18.40
2019-05-18T18:55:02.508Z,18.20
2019-05-18T18:57:41.263Z,18.10
2019-05-18T19:00:04.155Z,18.10
2019-05-18T19:02:33.771Z,18.00
2019-05-18T19:05:03.490Z,18.00
2019-05-18T19:07:33.505Z,18.00
2019-05-18T19:10:05.238Z,17.70
2019-05-18T19:12:35.218Z,17.40
2019-05-18T19:15:05.738Z,17.20
2019-05-18T19:17:35.161Z,17.10
2019-05-18T19:20:06.292Z,16.90
2019-05-18T19:22:36.069Z,16.80
2019-05-18T19:25:07.920Z,16.70
2019-05-18T19:27:37.462Z,16.60
2019-05-18T19:30:11.163Z,16.70
2019-05-18T19:32:40.700Z,16.80
2019-05-18T19:35:10.113Z,16.80
2019-05-18T19:37:39.468Z,16.80
2019-05-18T19:40:09.178Z,16.60
2019-05-18T19:42:38.481Z,16.40
2019-05-18T19:45:08.712Z,16.10
2019-05-18T19:47:38.140Z,16.10
2019-05-18T19:50:08.049Z,16.10
2019-05-18T19:52:38.955Z,16.00
2019-05-18T19:55:08.322Z,15.90
2019-05-18T19:57:37.824Z,15.70
2019-05-18T20:00:08.123Z,15.50
2019-05-18T20:02:37.578Z,15.60
2019-05-18T20:05:16.528Z,15.60
2019-05-18T20:07:46.025Z,15.50
2019-05-18T20:10:17.664Z,15.60
2019-05-18T20:12:47.236Z,15.60
2019-05-18T20:15:16.936Z,15.60
2019-05-18T20:17:46.451Z,15.70
2019-05-18T20:20:16.477Z,15.60
2019-05-18T20:22:45.776Z,15.70
2019-05-18T20:25:15.554Z,15.70
2019-05-18T20:27:44.860Z,15.60
2019-05-18T20:30:15.444Z,15.50
2019-05-18T20:32:44.705Z,15.40
2019-05-18T20:35:14.314Z,15.40
2019-05-18T20:37:43.668Z,15.70
2019-05-18T20:40:13.356Z,15.90
2019-05-18T20:42:42.767Z,16.10
2019-05-18T20:45:12.419Z,16.20
2019-05-18T20:47:41.842Z,16.30
2019-05-18T20:50:12.310Z,16.30
2019-05-18T20:52:41.660Z,16.10
2019-05-18T20:55:12.808Z,15.80
2019-05-18T20:57:42.896Z,15.70
2019-05-18T21:00:13.581Z,15.60
2019-05-18T21:02:42.875Z,15.20
2019-05-18T21:05:13.553Z,15.20
2019-05-18T21:07:42.964Z,15.10
2019-05-18T21:10:13.849Z,14.80
2019-05-18T21:12:43.228Z,14.70
2019-05-18T21:15:12.821Z,14.60
2019-05-18T21:17:42.115Z,14.60
2019-05-18T21:20:11.454Z,14.50
2019-05-18T21:22:40.751Z,14.50
2019-05-18T21:25:11.535Z,14.30
2019-05-18T21:27:40.799Z,14.30
2019-05-18T21:30:10.630Z,14.40
2019-05-18T21:32:49.454Z,14.40
2019-05-18T21:35:17.054Z,14.30
2019-05-18T21:37:50.528Z,14.10
2019-05-18T21:40:20.856Z,14.00
2019-05-18T21:42:50.890Z,14.00
2019-05-18T21:45:20.878Z,14.00
2019-05-18T21:47:50.790Z,13.90
2019-05-18T21:50:20.169Z,13.90
2019-05-18T21:52:49.451Z,13.80
2019-05-18T21:55:19.013Z,13.80
2019-05-18T21:57:48.429Z,13.70
2019-05-18T22:00:18.762Z,13.60
2019-05-18T22:02:48.808Z,13.50
2019-05-18T22:05:18.291Z,13.50
2019-05-18T22:07:47.488Z,13.40
2019-05-18T22:10:25.362Z,13.30
2019-05-18T22:12:47.885Z,13.30
2019-05-18T22:15:17.494Z,13.30
2019-05-18T22:18:23.620Z,13.30
2019-05-18T22:20:44.442Z,13.30
2019-05-18T22:23:13.942Z,13.30
2019-05-18T22:25:43.410Z,13.30
2019-05-18T22:28:12.653Z,13.30
2019-05-18T22:30:42.016Z,13.20
2019-05-18T22:33:11.489Z,13.20
2019-05-18T22:35:41.036Z,13.30
2019-05-18T22:38:10.398Z,13.40
2019-05-18T22:40:41.637Z,13.40
2019-05-18T22:43:12.244Z,13.40
2019-05-18T22:45:41.525Z,13.40
2019-05-18T22:48:13.088Z,13.40
2019-05-18T22:50:42.487Z,13.40
2019-05-18T22:53:11.810Z,13.40
2019-05-18T22:55:41.087Z,13.50
2019-05-18T22:58:10.529Z,13.40
2019-05-18T23:00:39.930Z,13.40
2019-05-18T23:03:09.251Z,13.40
2019-05-18T23:05:38.559Z,13.50
2019-05-18T23:08:07.887Z,13.40
2019-05-18T23:10:37.155Z,13.40
2019-05-18T23:13:06.397Z,13.30
2019-05-18T23:15:35.876Z,13.20
2019-05-18T23:18:05.058Z,13.10
2019-05-18T23:20:34.417Z,13.10
2019-05-18T23:23:03.699Z,13.00
2019-05-18T23:25:32.962Z,12.90
2019-05-18T23:28:03.072Z,12.90
2019-05-18T23:30:32.456Z,12.80
2019-05-18T23:33:01.741Z,12.70
2019-05-18T23:35:31.068Z,12.70
2019-05-18T23:38:00.322Z,12.70
2019-05-18T23:40:29.541Z,12.60
2019-05-18T23:42:58.879Z,12.70
2019-05-18T23:45:28.070Z,12.70
2019-05-18T23:47:59.469Z,12.70
2019-05-18T23:50:28.355Z,12.70
2019-05-18T23:52:57.678Z,12.60
2019-05-18T23:55:26.909Z,12.70
2019-05-18T23:58:05.319Z,12.60
